createdAt,value
2018-12-22T00:02:01.539Z,4.9
2018-12-22T00:07:23.650Z,4.8
2018-12-22T00:12:50.530Z,4.8
2018-12-22T00:18:17.417Z,4.8
2018-12-22T00:23:45.286Z,4.7
2018-12-22T00:29:13.210Z,4.7
2018-12-22T00:34:41.137Z,4.8
2018-12-22T00:40:08.082Z,4.8
2018-12-22T00:45:35.982Z,4.9
2018-12-22T00:51:02.938Z,4.9
2018-12-22T00:56:30.878Z,5
2018-12-22T01:01:59.780Z,5
2018-12-22T01:07:25.775Z,5.1
2018-12-22T01:12:53.697Z,5.1
2018-12-22T01:18:20.651Z,5.1
2018-12-22T01:23:47.627Z,5.1
2018-12-22T01:29:14.494Z,5
2018-12-22T01:34:41.439Z,5
2018-12-22T01:40:08.402Z,4.9
2018-12-22T01:45:35.401Z,4.8
2018-12-22T01:51:03.229Z,4.7
2018-12-22T01:56:30.229Z,4.7
2018-12-22T02:01:57.077Z,4.6
2018-12-22T02:07:24.950Z,4.6
2018-12-22T02:12:52.936Z,4.6
2018-12-22T02:18:19.760Z,4.6
2018-12-22T02:23:47.725Z,4.6
2018-12-22T02:29:15.637Z,4.6
2018-12-22T02:34:43.620Z,4.7
2018-12-22T02:40:11.423Z,4.8
2018-12-22T02:45:39.403Z,4.8
2018-12-22T02:51:07.320Z,4.9
2018-12-22T02:56:35.195Z,4.8
2018-12-22T03:02:02.136Z,4.8
2018-12-22T03:07:30.070Z,4.8
2018-12-22T03:12:56.983Z,4.8
2018-12-22T03:18:23.910Z,4.8
2018-12-22T03:23:50.923Z,4.8
2018-12-22T03:29:18.781Z,4.8
2018-12-22T03:34:46.654Z,4.8
2018-12-22T03:40:13.534Z,4.8
2018-12-22T03:45:41.482Z,4.8
2018-12-22T03:51:08.389Z,4.7
2018-12-22T03:56:36.293Z,4.7
2018-12-22T04:02:04.178Z,4.7
2018-12-22T04:07:32.166Z,4.6
2018-12-22T04:12:59.038Z,4.6
2018-12-22T04:18:25.948Z,4.5
2018-12-22T04:23:52.794Z,4.5
2018-12-22T04:29:19.674Z,4.5
2018-12-22T04:34:46.526Z,4.4
2018-12-22T04:40:13.408Z,4.4
2018-12-22T04:45:41.305Z,4.4
2018-12-22T04:51:09.187Z,4.5
2018-12-22T04:56:37.112Z,4.5
2018-12-22T05:02:04.083Z,4.5
2018-12-22T05:07:30.859Z,4.5
2018-12-22T05:12:57.784Z,4.5
2018-12-22T05:18:24.707Z,4.6
2018-12-22T05:23:52.550Z,4.6
2018-12-22T05:29:20.494Z,4.6
2018-12-22T05:34:48.302Z,4.4
2018-12-22T05:40:15.295Z,4.4
2018-12-22T05:45:42.150Z,4.4
2018-12-22T05:51:09.211Z,4.4
2018-12-22T05:56:36.880Z,4.4
2018-12-22T06:02:04.902Z,4.5
2018-12-22T06:07:31.674Z,4.5
2018-12-22T06:12:59.551Z,4.6
2018-12-22T06:18:26.475Z,4.6
2018-12-22T06:23:54.368Z,4.6
2018-12-22T06:29:21.421Z,4.6
2018-12-22T06:34:48.166Z,4.6
2018-12-22T06:40:16.038Z,4.6
2018-12-22T06:45:43.953Z,4.6
2018-12-22T06:51:11.945Z,4.6
2018-12-22T06:56:40.093Z,4.6
2018-12-22T07:02:06.681Z,4.5
2018-12-22T07:07:34.614Z,4.5
2018-12-22T07:13:01.485Z,4.5
2018-12-22T07:18:28.479Z,4.6
2018-12-22T07:23:56.324Z,4.6
2018-12-22T07:29:24.323Z,4.6
2018-12-22T07:34:51.117Z,4.6
2018-12-22T07:40:19.186Z,4.6
2018-12-22T07:45:45.972Z,4.6
2018-12-22T07:51:13.824Z,4.6
2018-12-22T07:56:40.771Z,4.6
2018-12-22T08:02:08.608Z,4.6
2018-12-22T08:07:35.518Z,4.6
2018-12-22T08:13:03.459Z,4.6
2018-12-22T08:18:30.373Z,4.6
2018-12-22T08:23:57.266Z,4.6
2018-12-22T08:29:24.120Z,4.6
2018-12-22T08:34:51.036Z,4.7
2018-12-22T08:40:17.962Z,4.7
2018-12-22T08:45:44.821Z,4.8
2018-12-22T08:51:11.693Z,4.7
2018-12-22T08:56:39.643Z,4.7
2018-12-22T09:02:06.530Z,4.7
2018-12-22T09:07:33.458Z,4.7
2018-12-22T09:13:01.355Z,4.6
2018-12-22T09:18:29.243Z,4.6
2018-12-22T09:23:57.099Z,4.6
2018-12-22T09:29:24.471Z,4.6
2018-12-22T09:34:51.905Z,4.6
2018-12-22T09:40:18.783Z,4.6
2018-12-22T09:45:45.662Z,4.6
2018-12-22T09:51:12.570Z,4.7
2018-12-22T09:56:39.472Z,4.8
2018-12-22T10:02:07.438Z,4.8
2018-12-22T10:07:35.327Z,4.9
2018-12-22T10:13:03.271Z,4.9
2018-12-22T10:18:30.167Z,4.9
2018-12-22T10:23:57.072Z,5
2018-12-22T10:29:24.006Z,5
2018-12-22T10:34:50.881Z,5
2018-12-22T10:40:17.874Z,5.1
2018-12-22T10:45:44.761Z,5.1
2018-12-22T10:51:11.744Z,5.2
2018-12-22T10:56:39.659Z,5.2
2018-12-22T11:02:06.598Z,5.3
2018-12-22T11:07:33.568Z,5.4
2018-12-22T11:13:01.529Z,5.4
2018-12-22T11:18:29.453Z,5.4
2018-12-22T11:23:56.422Z,5.3
2018-12-22T11:29:23.335Z,5.2
2018-12-22T11:34:51.318Z,5.2
2018-12-22T11:40:19.214Z,5.2
2018-12-22T11:45:47.209Z,5.2
2018-12-22T11:51:14.137Z,5.3
2018-12-22T11:56:41.074Z,5.3
2018-12-22T12:02:09.705Z,5.4
2018-12-22T12:07:37.048Z,5.5
2018-12-22T12:13:03.944Z,5.5
2018-12-22T12:18:30.925Z,5.5
2018-12-22T12:23:57.881Z,5.5
2018-12-22T12:29:24.836Z,5.5
2018-12-22T12:34:51.828Z,5.5
2018-12-22T12:40:19.799Z,5.4
2018-12-22T12:45:46.690Z,5.4
2018-12-22T12:51:13.696Z,5.4
2018-12-22T12:56:40.623Z,5.4
2018-12-22T13:02:07.580Z,5.3
2018-12-22T13:07:35.533Z,5.3
2018-12-22T13:13:02.546Z,5.3
2018-12-22T13:18:30.551Z,5.4
2018-12-22T13:23:58.399Z,5.3
2018-12-22T13:29:26.402Z,5.3
2018-12-22T13:34:54.327Z,5.3
2018-12-22T13:40:21.270Z,5.3
2018-12-22T13:45:48.244Z,5.3
2018-12-22T13:51:15.341Z,5.4
2018-12-22T13:56:43.136Z,5.4
2018-12-22T14:02:18.077Z,5.4
2018-12-22T14:07:39.082Z,5.4
2018-12-22T14:13:07.042Z,5.4
2018-12-22T14:18:33.953Z,5.3
2018-12-22T14:24:01.915Z,5.3
2018-12-22T14:29:28.925Z,5.2
2018-12-22T14:34:56.816Z,5.2
2018-12-22T14:40:29.723Z,5.2
2018-12-22T14:45:51.676Z,5.2
2018-12-22T14:51:18.620Z,5.2
2018-12-22T14:56:46.628Z,5.1
2018-12-22T15:02:13.475Z,5.1
2018-12-22T15:07:41.416Z,5.1
2018-12-22T15:13:09.327Z,5.1
2018-12-22T15:18:37.277Z,5.1
2018-12-22T15:24:05.671Z,5
2018-12-22T15:29:33.181Z,5
2018-12-22T15:35:00.157Z,5
2018-12-22T15:45:55.895Z,4.9
2018-12-22T15:51:23.860Z,4.9
2018-12-22T15:56:51.805Z,4.9
2018-12-22T16:02:18.888Z,4.9
2018-12-22T16:07:46.617Z,4.9
2018-12-22T16:13:13.501Z,4.9
2018-12-22T16:18:41.418Z,4.9
2018-12-22T16:24:08.381Z,4.9
2018-12-22T16:29:35.256Z,4.9
2018-12-22T16:35:03.208Z,4.9
2018-12-22T16:40:31.167Z,4.9
2018-12-22T16:45:58.029Z,4.9
2018-12-22T16:51:25.952Z,4.9
2018-12-22T16:56:52.916Z,4.9
2018-12-22T17:02:20.828Z,4.9
2018-12-22T17:07:47.747Z,4.9
2018-12-22T17:13:15.696Z,4.9
2018-12-22T17:18:42.554Z,4.9
2018-12-22T17:24:10.548Z,4.9
2018-12-22T17:29:37.422Z,4.9
2018-12-22T17:35:05.355Z,4.9
2018-12-22T17:40:32.219Z,4.9
2018-12-22T17:46:00.152Z,4.9
2018-12-22T17:51:28.067Z,4.9
2018-12-22T17:56:56.004Z,4.9
2018-12-22T18:02:22.967Z,4.9
2018-12-22T18:07:49.882Z,4.8
2018-12-22T18:13:17.688Z,4.8
2018-12-22T18:18:45.621Z,4.8
2018-12-22T18:24:13.555Z,4.9
2018-12-22T18:29:41.523Z,4.9
2018-12-22T18:35:09.356Z,4.9
2018-12-22T18:40:36.274Z,4.9
2018-12-22T18:46:04.197Z,4.9
2018-12-22T18:51:32.189Z,4.9
2018-12-22T18:57:00.051Z,4.9
2018-12-22T19:02:26.937Z,4.9
2018-12-22T19:07:53.915Z,4.9
2018-12-22T19:13:20.779Z,4.9
2018-12-22T19:18:48.705Z,5
2018-12-22T19:24:15.643Z,5
2018-12-22T19:29:42.568Z,5
2018-12-22T19:35:09.511Z,5
2018-12-22T19:40:37.440Z,5
2018-12-22T19:46:05.361Z,5
2018-12-22T19:51:33.334Z,5
2018-12-22T19:57:00.375Z,5
2018-12-22T20:02:28.158Z,5
2018-12-22T20:07:56.079Z,5
2018-12-22T20:13:23.985Z,5
2018-12-22T20:18:50.921Z,5
2018-12-22T20:24:18.810Z,5
2018-12-22T20:29:45.759Z,5
2018-12-22T20:35:13.711Z,5
2018-12-22T20:40:41.619Z,5
2018-12-22T20:46:08.506Z,5.1
2018-12-22T20:51:35.415Z,5
2018-12-22T20:57:02.332Z,5
2018-12-22T21:02:29.305Z,5
2018-12-22T21:07:57.263Z,5.1
2018-12-22T21:13:24.206Z,5.1
2018-12-22T21:18:52.177Z,5.1
2018-12-22T21:24:19.061Z,5.1
2018-12-22T21:29:47.029Z,5.1
2018-12-22T21:35:14.938Z,5.1
2018-12-22T21:40:41.910Z,5.1
2018-12-22T21:46:10.051Z,5.1
2018-12-22T21:51:35.872Z,5.1
2018-12-22T21:57:02.663Z,5.1
2018-12-22T22:02:29.586Z,5.2
2018-12-22T22:07:56.523Z,5.2
2018-12-22T22:13:23.462Z,5.2
2018-12-22T22:18:51.395Z,5.2
2018-12-22T22:24:19.357Z,5.2
2018-12-22T22:29:46.274Z,5.2
2018-12-22T22:35:13.233Z,5.2
2018-12-22T22:40:40.152Z,5.2
2018-12-22T22:46:07.076Z,5.2
2018-12-22T22:51:34.012Z,5.2
2018-12-22T22:57:00.998Z,5.2
2018-12-22T23:02:28.939Z,5.2
2018-12-22T23:07:55.843Z,5.3
2018-12-22T23:13:24.692Z,5.3
2018-12-22T23:18:49.746Z,5.3
2018-12-22T23:24:17.712Z,5.3
2018-12-22T23:29:45.674Z,5.3
2018-12-22T23:35:12.673Z,5.3
2018-12-22T23:40:39.567Z,5.4
2018-12-22T23:46:06.505Z,5.4
2018-12-22T23:51:34.463Z,5.4
2018-12-22T23:57:02.435Z,5.5
